Featherville, Idaho
Current Conditions -  °F | °C
As of 10:58 AM on Sunday 25 Jan 2015 (Local Time) from KMUO Reporting Station
Clear Clear  
Wind Chill: 34°   Ceiling: Unl
Heat Index: 34°   Visibility: 10mi
Dew Point: 29°   Wind: 3mph
Humidity: 82%   Direction: 170°S
Pressure: 30.48"   Gusts: NA
Location:  43.2609°N, 115.781°W
Report Text: KMUO 251758Z AUTO 17003KT 10SM CLR 01/M01 A3048 RMK AO2 SLP344 T00121015 10012 21027 51009
Loading
Personal Weather Stations






























Interactive Weather Map New forecast layout! Learn more

10-Day Weather Forecast

Advertisements
Track Severe Weather on mobile